Armony — 5IM517 — position and weather

sailwx.info

Track history (hours):
 
Tides and Currents Weather Stations Pressure Air Temp Water Temp Dewpoint Dewpoint Depression Visibility Wind Speed Wind Dir Waves Ship Positions

Armony

Last reported at 2014-Aug-15 15:33 UTC. Time now 2014-Aug-20 22:30 UTC.
Position N 40°44' E 029°26'.

Length 70 m; draft 4.6 m.

Type: Cargo ship. MMSI: 677041700.

Date/timePositionNaut miles runAvg speedWind from/ knotsBaromVisibWave heightAir tempDewpointWater temp
2014-Aug-15 15:33N 40°44' E 029°26'7 6.5
2014-Aug-15 14:33N 40°45' E 029°17'8 7.6
2014-Aug-15 13:33N 40°48' E 029°08'7 7.5
2014-Aug-15 12:33N 40°51' E 028°59'  
2014-Aug-08 12:13N 41°00' E 028°60'4 5.1
2014-Aug-08 11:29N 40°57' E 028°58'3 0.6
2014-Aug-08 07:04N 40°58' E 028°55'0 0.0
2014-Aug-07 15:19N 40°58' E 028°55'0 0.1
2014-Aug-07 14:25N 40°58' E 028°55'0 0.1
2014-Aug-07 13:13N 40°58' E 028°55'0 0.1
2014-Aug-07 12:13N 40°58' E 028°55'0 0.0
2014-Aug-07 10:22N 40°58' E 028°55'0 0.0
2014-Aug-07 09:33N 40°58' E 028°55'0 0.0
2014-Aug-07 08:06N 40°58' E 028°55'0 0.4
2014-Aug-07 07:31N 40°58' E 028°55'7 7.1
2014-Aug-07 06:33N 40°52' E 029°01'8 8.4
2014-Aug-07 05:33N 40°48' E 029°10'9 8.5
2014-Aug-07 04:33N 40°45' E 029°21'  
Track history (hours):
 
Tides and Currents Weather Stations Pressure Air Temp Water Temp Dewpoint Dewpoint Depression Visibility Wind Speed Wind Dir Waves Ship Positions

Armony

Last reported at 2014-Aug-15 15:33 UTC. Time now 2014-Aug-20 22:30 UTC.
Position N 40°44' E 029°26'.

Length 70 m; draft 4.6 m.

Type: Cargo ship. MMSI: 677041700.

Date/timePositionNaut miles runAvg speedWind from/ knotsBaromVisibWave heightAir tempDewpointWater temp
2014-Aug-15 15:33N 40°44' E 029°26'7 6.5
2014-Aug-15 14:33N 40°45' E 029°17'8 7.6
2014-Aug-15 13:33N 40°48' E 029°08'7 7.5
2014-Aug-15 12:33N 40°51' E 028°59'  
2014-Aug-08 12:13N 41°00' E 028°60'4 5.1
2014-Aug-08 11:29N 40°57' E 028°58'3 0.6
2014-Aug-08 07:04N 40°58' E 028°55'0 0.0
2014-Aug-07 15:19N 40°58' E 028°55'0 0.1
2014-Aug-07 14:25N 40°58' E 028°55'0 0.1
2014-Aug-07 13:13N 40°58' E 028°55'0 0.1
2014-Aug-07 12:13N 40°58' E 028°55'0 0.0
2014-Aug-07 10:22N 40°58' E 028°55'0 0.0
2014-Aug-07 09:33N 40°58' E 028°55'0 0.0
2014-Aug-07 08:06N 40°58' E 028°55'0 0.4
2014-Aug-07 07:31N 40°58' E 028°55'7 7.1
2014-Aug-07 06:33N 40°52' E 029°01'8 8.4
2014-Aug-07 05:33N 40°48' E 029°10'9 8.5
2014-Aug-07 04:33N 40°45' E 029°21'  

Dump ship's entire track history